»·PEaware :: ASA709 KSEA-KOAK

ASA709 :: KSEA-KOAK

FLIGHT INFORMATION

Flight Status: Arrived
Operator:
Alaska Airlines
More flights by this operator :: More flights under this callsign
Pilot: Michael F. (26726)
Aircraft: BOEING 737-800
(B738)
More flights by this aircraft type
Origin: KSEA Seattle-Tacoma Intl
United States
Destination: KOAK Metro Oakland Intl
United States
More flights between these airports :: More routes between these airports
Route: HAROB6 HISKU Q5 HUPTU SPAMY WNDSR2
File this flight plan on PilotEdge
Remarks: RMK / SIMBRIEF
Altitude:
(Current/Filed)
35,000ft
Speed:
(Current/Filed)
462kts
Departed: 04-Nov-20 08:47 PM
Arrived: 04-Nov-20 10:28 PM
Distance/Time
Traveled:
584nm/1:41
Distance/Time
To Go:
Arrived

Flight Plot

Page will automatically refresh every two minutes.

Flight plan parsing failed; only flown route is shown


Map Options




Map Legend


Flown Route
Filed Route
Departure Airport
Arrival Airport
Navaid (VOR, NDB)
Fix

Horizontal Profiles

Position Reports

Time Latitude Longitude Heading Altitude Ground
Speed
04-Nov-20 20:26 47.446936 -122.304278 185 442ft 0kts
04-Nov-20 20:27 47.446936 -122.304278 185 442ft 0kts
04-Nov-20 20:28 47.446936 -122.304278 185 442ft 0kts
04-Nov-20 20:29 47.446936 -122.304278 185 442ft 0kts
04-Nov-20 20:30 47.446936 -122.304278 185 442ft 0kts
04-Nov-20 20:31 47.446936 -122.304278 185 442ft 0kts
04-Nov-20 20:32 47.446936 -122.304278 185 442ft 0kts
04-Nov-20 20:33 47.446936 -122.304278 185 442ft 0kts
04-Nov-20 20:34 47.446936 -122.304278 185 442ft 0kts
04-Nov-20 20:35 47.446936 -122.304278 185 442ft 0kts
04-Nov-20 20:36 47.447391 -122.304138 209 442ft 2kts
04-Nov-20 20:37 47.447537 -122.303830 306 442ft 0kts
04-Nov-20 20:38 47.447537 -122.303830 306 442ft 0kts
04-Nov-20 20:39 47.447537 -122.303831 306 442ft 0kts
04-Nov-20 20:40 47.447649 -122.304687 269 442ft 0kts
04-Nov-20 20:41 47.448347 -122.305355 0 442ft 9kts
04-Nov-20 20:42 47.452143 -122.305049 1 442ft 15kts
04-Nov-20 20:43 47.456828 -122.305019 359 442ft 18kts
04-Nov-20 20:44 47.462057 -122.304989 357 442ft 16kts
04-Nov-20 20:45 47.463739 -122.306894 269 442ft 6kts
04-Nov-20 20:46 47.455525 -122.307862 181 442ft 114kts
04-Nov-20 20:47 47.412977 -122.308166 182 2775ft 172kts
04-Nov-20 20:48 47.356869 -122.310128 185 5066ft 229kts
04-Nov-20 20:49 47.315272 -122.365190 253 8329ft 240kts
04-Nov-20 20:50 47.307134 -122.467395 266 10889ft 275kts
04-Nov-20 20:51 47.311003 -122.589834 267 13112ft 307kts
04-Nov-20 20:52 47.314431 -122.715234 267 16316ft 306kts
04-Nov-20 20:53 47.296436 -122.835419 251 19150ft 304kts
04-Nov-20 20:54 47.266554 -122.954529 250 21481ft 314kts
04-Nov-20 20:55 47.216987 -123.061278 231 23446ft 336kts
04-Nov-20 20:56 47.143531 -123.150431 225 25223ft 350kts
04-Nov-20 20:57 47.055057 -123.213675 190 27440ft 390kts
04-Nov-20 20:59 46.941850 -123.203843 188 28172ft 419kts
04-Nov-20 21:00 46.824023 -123.190748 188 29252ft 428kts
04-Nov-20 21:01 46.704508 -123.177559 188 30184ft 433kts
04-Nov-20 21:02 46.583190 -123.164239 188 30926ft 438kts
04-Nov-20 21:03 46.461627 -123.150926 188 31765ft 436kts
04-Nov-20 21:04 46.341366 -123.137841 188 32668ft 432kts
04-Nov-20 21:05 46.222201 -123.124940 188 33479ft 429kts
04-Nov-20 21:06 46.102926 -123.112077 189 34241ft 426kts
04-Nov-20 21:07 45.985006 -123.099420 188 34923ft 425kts
04-Nov-20 21:08 45.865890 -123.086714 188 35197ft 431kts
04-Nov-20 21:09 45.746587 -123.073968 188 35206ft 429kts
04-Nov-20 21:10 45.630729 -123.061680 188 35220ft 426kts
04-Nov-20 21:11 45.512816 -123.049237 188 35231ft 426kts
04-Nov-20 21:12 45.394239 -123.036764 187 35239ft 427kts
04-Nov-20 21:13 45.276018 -123.024379 187 35248ft 427kts
04-Nov-20 21:13 45.176735 -123.014018 187 35252ft 428kts
04-Nov-20 21:15 45.037892 -122.999588 187 35259ft 429kts
04-Nov-20 21:15 44.938713 -122.989327 187 35266ft 429kts
04-Nov-20 21:17 44.799288 -122.974957 187 35270ft 431kts
04-Nov-20 21:17 44.699684 -122.964733 186 35276ft 431kts
04-Nov-20 21:18 44.580116 -122.952508 186 35288ft 432kts
04-Nov-20 21:19 44.460440 -122.942759 190 35297ft 427kts
04-Nov-20 21:20 44.341184 -122.939450 189 35305ft 428kts
04-Nov-20 21:21 44.221998 -122.935778 189 35306ft 429kts
04-Nov-20 21:22 44.102276 -122.932116 189 35306ft 430kts
04-Nov-20 21:23 43.982513 -122.928463 188 35305ft 431kts
04-Nov-20 21:24 43.862194 -122.924819 188 35307ft 433kts
04-Nov-20 21:25 43.741769 -122.921178 188 35310ft 434kts
04-Nov-20 21:26 43.620638 -122.917531 188 35315ft 435kts
04-Nov-20 21:27 43.499464 -122.913897 187 35314ft 435kts
04-Nov-20 21:28 43.378441 -122.910284 187 35313ft 436kts
04-Nov-20 21:29 43.257006 -122.906674 187 35312ft 436kts
04-Nov-20 21:30 43.135668 -122.903080 187 35324ft 437kts
04-Nov-20 21:31 43.014082 -122.899493 187 35331ft 437kts
04-Nov-20 21:32 42.891812 -122.895902 187 35340ft 438kts
04-Nov-20 21:33 42.769990 -122.892336 187 35346ft 439kts
04-Nov-20 21:34 42.647556 -122.888767 187 35345ft 440kts
04-Nov-20 21:35 42.524691 -122.885200 186 35338ft 441kts
04-Nov-20 21:36 42.402099 -122.881663 186 35326ft 442kts
04-Nov-20 21:37 42.278889 -122.878131 186 35325ft 443kts
04-Nov-20 21:38 42.155678 -122.874611 186 35335ft 443kts
04-Nov-20 21:39 42.032081 -122.871095 186 35347ft 443kts
04-Nov-20 21:40 41.908629 -122.867598 185 35358ft 445kts
04-Nov-20 21:41 41.784828 -122.864105 185 35367ft 446kts
04-Nov-20 21:42 41.660191 -122.860598 185 35372ft 447kts
04-Nov-20 21:43 41.535835 -122.857115 185 35375ft 448kts
04-Nov-20 21:44 41.410824 -122.853626 184 35377ft 448kts
04-Nov-20 21:45 41.285995 -122.848830 183 35374ft 450kts
04-Nov-20 21:46 41.160553 -122.841050 183 35361ft 450kts
04-Nov-20 21:47 41.035515 -122.833594 183 35351ft 451kts
04-Nov-20 21:48 40.909900 -122.826136 182 35337ft 451kts
04-Nov-20 21:49 40.784585 -122.818723 182 35322ft 452kts
04-Nov-20 21:50 40.658670 -122.811303 182 35308ft 452kts
04-Nov-20 21:51 40.533073 -122.803930 182 35298ft 452kts
04-Nov-20 21:52 40.407069 -122.796561 181 35276ft 453kts
04-Nov-20 21:53 40.281242 -122.789229 181 35274ft 453kts
04-Nov-20 21:54 40.154934 -122.781897 181 35274ft 453kts
04-Nov-20 21:55 40.028898 -122.774608 181 35274ft 453kts
04-Nov-20 21:56 39.902549 -122.767326 180 35274ft 454kts
04-Nov-20 21:57 39.776365 -122.760084 180 35275ft 455kts
04-Nov-20 21:58 39.649504 -122.752809 180 33445ft 456kts
04-Nov-20 21:59 39.522529 -122.744414 171 31271ft 460kts
04-Nov-20 22:00 39.399702 -122.691637 160 29016ft 467kts
04-Nov-20 22:01 39.279078 -122.631205 159 26789ft 460kts
04-Nov-20 22:02 39.158075 -122.587820 172 24612ft 445kts
04-Nov-20 22:03 39.037901 -122.568141 171 22515ft 430kts
04-Nov-20 22:04 38.922060 -122.538789 168 20479ft 418kts
04-Nov-20 22:05 38.809628 -122.510627 168 18506ft 405kts
04-Nov-20 22:06 38.703556 -122.484198 168 16387ft 367kts
04-Nov-20 22:07 38.604822 -122.467075 172 14766ft 350kts
04-Nov-20 22:08 38.510792 -122.452667 172 13265ft 329kts
04-Nov-20 22:09 38.422829 -122.439287 172 11856ft 308kts
04-Nov-20 22:10 38.340049 -122.426724 172 10533ft 290kts
04-Nov-20 22:11 38.261885 -122.414887 172 9284ft 279kts
04-Nov-20 22:12 38.185490 -122.403197 172 8474ft 276kts
04-Nov-20 22:13 38.109567 -122.391569 172 7795ft 272kts
04-Nov-20 22:14 38.034344 -122.379637 165 7126ft 270kts
04-Nov-20 22:15 37.971477 -122.330264 144 6585ft 270kts
04-Nov-20 22:16 37.911630 -122.274518 141 6073ft 266kts
04-Nov-20 22:17 37.852587 -122.218239 142 5569ft 264kts
04-Nov-20 22:18 37.793977 -122.162518 141 5072ft 263kts
04-Nov-20 22:19 37.746849 -122.092350 126 5003ft 256kts
04-Nov-20 22:20 37.706361 -122.026281 126 4995ft 233kts
04-Nov-20 22:21 37.666842 -121.961712 134 4832ft 237kts
04-Nov-20 22:22 37.615805 -121.973095 253 3802ft 213kts
04-Nov-20 22:23 37.611601 -122.043036 279 2900ft 196kts
04-Nov-20 22:24 37.635602 -122.102364 299 2525ft 190kts
04-Nov-20 22:25 37.660513 -122.153760 317 1350ft 168kts
04-Nov-20 22:26 37.689008 -122.195441 304 421ft 145kts
04-Nov-20 22:27 37.710179 -122.227298 309 15ft 39kts
04-Nov-20 22:30 37.714927 -122.231118 56 15ft 0kts
04-Nov-20 22:31 37.713666 -122.228780 128 15ft 13kts
04-Nov-20 22:32 37.711106 -122.224730 119 15ft 13kts
04-Nov-20 22:33 37.712804 -122.221813 113 15ft 6kts
04-Nov-20 22:34 37.711681 -122.220013 131 15ft 8kts
04-Nov-20 22:35 37.711162 -122.217674 78 15ft 5kts
04-Nov-20 22:36 37.711125 -122.216921 110 15ft 1kts
04-Nov-20 22:37 37.711056 -122.216767 118 15ft 0kts
04-Nov-20 22:38 37.711056 -122.216767 118 15ft 0kts
04-Nov-20 22:39 37.711056 -122.216767 118 15ft 0kts
04-Nov-20 22:40 37.711056 -122.216767 118 15ft 0kts
04-Nov-20 22:41 37.711056 -122.216767 118 15ft 0kts

Navigation Log

Ident Type
Flight plan parsing failed, navigation log unavailable